sensor_id;sensor_type;location;lat;lon;timestamp;pressure;altitude;pressure_sealevel;temperature;humidity
8637;BME280;4356;49.068;8.658;2023-05-23T00:00:36;99726.94;;;24.67;43.96
8637;BME280;4356;49.068;8.658;2023-05-23T00:03:02;99724.19;;;24.67;43.81
8637;BME280;4356;49.068;8.658;2023-05-23T00:05:28;99726.69;;;24.69;43.96
8637;BME280;4356;49.068;8.658;2023-05-23T00:07:54;99726.94;;;24.67;44.06
8637;BME280;4356;49.068;8.658;2023-05-23T00:10:21;99728.88;;;24.67;43.82
8637;BME280;4356;49.068;8.658;2023-05-23T00:12:46;99732.72;;;24.66;44.03
8637;BME280;4356;49.068;8.658;2023-05-23T00:15:12;99729.41;;;24.64;43.99
8637;BME280;4356;49.068;8.658;2023-05-23T00:17:38;99728.84;;;24.62;43.97
8637;BME280;4356;49.068;8.658;2023-05-23T00:20:05;99732.94;;;24.59;43.92
8637;BME280;4356;49.068;8.658;2023-05-23T00:22:34;99741.75;;;24.61;44.00
8637;BME280;4356;49.068;8.658;2023-05-23T00:25:01;99742.28;;;24.58;44.02
8637;BME280;4356;49.068;8.658;2023-05-23T00:27:26;99728.53;;;24.53;43.95
8637;BME280;4356;49.068;8.658;2023-05-23T00:29:52;99741.44;;;24.58;44.07
8637;BME280;4356;49.068;8.658;2023-05-23T00:32:17;99738.69;;;24.58;44.08
8637;BME280;4356;49.068;8.658;2023-05-23T00:34:43;99738.69;;;24.58;44.02
8637;BME280;4356;49.068;8.658;2023-05-23T00:37:09;99742.00;;;24.55;44.15
8637;BME280;4356;49.068;8.658;2023-05-23T00:39:36;99744.69;;;24.49;43.91
8637;BME280;4356;49.068;8.658;2023-05-23T00:42:03;99745.81;;;24.54;43.93
8637;BME280;4356;49.068;8.658;2023-05-23T00:44:30;99740.59;;;24.52;44.20
8637;BME280;4356;49.068;8.658;2023-05-23T00:46:56;99746.09;;;24.52;44.07
8637;BME280;4356;49.068;8.658;2023-05-23T00:49:23;99745.25;;;24.52;43.97
8637;BME280;4356;49.068;8.658;2023-05-23T00:51:50;99724.28;;;24.40;44.11
8637;BME280;4356;49.068;8.658;2023-05-23T00:54:29;99745.78;;;24.48;44.27
8637;BME280;4356;49.068;8.658;2023-05-23T00:56:58;99742.19;;;24.48;44.11
8637;BME280;4356;49.068;8.658;2023-05-23T00:59:24;99747.97;;;24.46;44.02
8637;BME280;4356;49.068;8.658;2023-05-23T01:01:51;99749.88;;;24.46;44.28
8637;BME280;4356;49.068;8.658;2023-05-23T01:04:19;99749.56;;;24.42;44.17
8637;BME280;4356;49.068;8.658;2023-05-23T01:06:45;99756.22;;;24.46;44.06
8637;BME280;4356;49.068;8.658;2023-05-23T01:09:16;99747.09;;;24.41;44.07
8637;BME280;4356;49.068;8.658;2023-05-23T01:14:34;99752.31;;;24.42;44.11
8637;BME280;4356;49.068;8.658;2023-05-23T01:17:12;99750.69;;;24.41;44.11
8637;BME280;4356;49.068;8.658;2023-05-23T01:19:59;99750.97;;;24.40;44.12
8637;BME280;4356;49.068;8.658;2023-05-23T01:25:47;99756.16;;;24.36;44.15
8637;BME280;4356;49.068;8.658;2023-05-23T01:28:16;99749.00;;;24.35;44.16
8637;BME280;4356;49.068;8.658;2023-05-23T01:30:45;99745.94;;;24.32;44.32
8637;BME280;4356;49.068;8.658;2023-05-23T01:33:13;99745.94;;;24.32;44.31
8637;BME280;4356;49.068;8.658;2023-05-23T01:35:41;99756.94;;;24.32;44.33
8637;BME280;4356;49.068;8.658;2023-05-23T01:38:08;99754.44;;;24.30;44.20
8637;BME280;4356;49.068;8.658;2023-05-23T01:40:34;99757.19;;;24.30;44.02
8637;BME280;4356;49.068;8.658;2023-05-23T01:43:00;99758.31;;;24.29;44.18
8637;BME280;4356;49.068;8.658;2023-05-23T01:45:28;99765.16;;;24.32;44.27
8637;BME280;4356;49.068;8.658;2023-05-23T01:47:54;99759.09;;;24.30;44.19
8637;BME280;4356;49.068;8.658;2023-05-23T01:50:21;99754.69;;;24.24;44.17
8637;BME280;4356;49.068;8.658;2023-05-23T01:52:47;99764.59;;;24.30;44.07
8637;BME280;4356;49.068;8.658;2023-05-23T01:55:16;99772.03;;;24.29;44.06
8637;BME280;4356;49.068;8.658;2023-05-23T01:57:49;99768.72;;;24.27;44.16
8637;BME280;4356;49.068;8.658;2023-05-23T02:00:16;99770.63;;;24.27;44.09
8637;BME280;4356;49.068;8.658;2023-05-23T02:02:41;99770.31;;;24.23;44.17
8637;BME280;4356;49.068;8.658;2023-05-23T02:05:08;99773.38;;;24.27;44.24
8637;BME280;4356;49.068;8.658;2023-05-23T02:07:34;99775.56;;;24.25;44.29
8637;BME280;4356;49.068;8.658;2023-05-23T02:10:00;99771.16;;;24.24;44.13
8637;BME280;4356;49.068;8.658;2023-05-23T02:12:26;99768.41;;;24.24;44.06
8637;BME280;4356;49.068;8.658;2023-05-23T02:14:53;99774.72;;;24.24;44.20
8637;BME280;4356;49.068;8.658;2023-05-23T02:17:19;99767.28;;;24.20;43.93
8637;BME280;4356;49.068;8.658;2023-05-23T02:19:47;99775.25;;;24.21;44.14
8637;BME280;4356;49.068;8.658;2023-05-23T02:22:13;99776.91;;;24.22;44.11
8637;BME280;4356;49.068;8.658;2023-05-23T02:24:39;99767.28;;;24.20;44.17
8637;BME280;4356;49.068;8.658;2023-05-23T02:27:05;99775.53;;;24.20;44.17
8637;BME280;4356;49.068;8.658;2023-05-23T02:29:30;99776.84;;;24.17;44.21
8637;BME280;4356;49.068;8.658;2023-05-23T02:31:56;99771.91;;;24.14;44.27
8637;BME280;4356;49.068;8.658;2023-05-23T02:34:21;99768.84;;;24.11;44.15
8637;BME280;4356;49.068;8.658;2023-05-23T02:36:47;99776.28;;;24.15;44.15
8637;BME280;4356;49.068;8.658;2023-05-23T02:39:12;99779.88;;;24.16;44.29
8637;BME280;4356;49.068;8.658;2023-05-23T02:41:38;99768.81;;;24.06;44.18
8637;BME280;4356;49.068;8.658;2023-05-23T02:44:03;99771.03;;;24.09;44.17
8637;BME280;4356;49.068;8.658;2023-05-23T02:46:29;99791.13;;;24.14;44.12
8637;BME280;4356;49.068;8.658;2023-05-23T02:48:54;99790.28;;;24.14;44.28
8637;BME280;4356;49.068;8.658;2023-05-23T02:51:20;99791.88;;;24.10;44.18
8637;BME280;4356;49.068;8.658;2023-05-23T02:53:47;99785.81;;;24.08;43.97
8637;BME280;4356;49.068;8.658;2023-05-23T02:56:12;99795.47;;;24.10;43.85
8637;BME280;4356;49.068;8.658;2023-05-23T02:58:40;99789.16;;;24.10;44.28
8637;BME280;4356;49.068;8.658;2023-05-23T03:01:06;99792.16;;;24.08;44.19
8637;BME280;4356;49.068;8.658;2023-05-23T03:03:32;99785.03;;;24.07;44.23
8637;BME280;4356;49.068;8.658;2023-05-23T03:05:58;99786.09;;;24.06;44.29
8637;BME280;4356;49.068;8.658;2023-05-23T03:08:24;99783.31;;;24.01;44.03
8637;BME280;4356;49.068;8.658;2023-05-23T03:10:50;99787.47;;;24.04;44.22
8637;BME280;4356;49.068;8.658;2023-05-23T03:13:16;99784.97;;;24.02;44.22
8637;BME280;4356;49.068;8.658;2023-05-23T03:15:42;99781.41;;;24.02;44.26
8637;BME280;4356;49.068;8.658;2023-05-23T03:18:08;99787.72;;;24.02;44.15
8637;BME280;4356;49.068;8.658;2023-05-23T03:20:33;99787.38;;;23.99;44.15
8637;BME280;4356;49.068;8.658;2023-05-23T03:22:59;99794.28;;;24.01;44.36
8637;BME280;4356;49.068;8.658;2023-05-23T03:25:24;99795.59;;;23.99;44.16
8637;BME280;4356;49.068;8.658;2023-05-23T03:27:50;99780.75;;;23.95;44.17
8637;BME280;4356;49.068;8.658;2023-05-23T03:30:16;99796.19;;;24.01;44.26
8637;BME280;4356;49.068;8.658;2023-05-23T03:32:41;99790.38;;;23.97;44.07
8637;BME280;4356;49.068;8.658;2023-05-23T03:35:07;99792.81;;;23.94;44.23
8637;BME280;4356;49.068;8.658;2023-05-23T03:37:33;99802.72;;;23.95;44.29
8637;BME280;4356;49.068;8.658;2023-05-23T03:39:58;99804.38;;;23.96;44.34
8637;BME280;4356;49.068;8.658;2023-05-23T03:42:24;99794.41;;;23.90;44.25
8637;BME280;4356;49.068;8.658;2023-05-23T03:44:49;99806.53;;;23.94;44.15
8637;BME280;4356;49.068;8.658;2023-05-23T03:47:15;99809.53;;;23.92;44.33
8637;BME280;4356;49.068;8.658;2023-05-23T03:49:40;99815.88;;;23.93;44.28
8637;BME280;4356;49.068;8.658;2023-05-23T03:52:06;99805.63;;;23.83;44.25
8637;BME280;4356;49.068;8.658;2023-05-23T03:54:31;99817.50;;;23.94;44.28
8637;BME280;4356;49.068;8.658;2023-05-23T03:56:57;99820.53;;;23.92;44.31
8637;BME280;4356;49.068;8.658;2023-05-23T03:59:22;99821.84;;;23.90;44.21
8637;BME280;4356;49.068;8.658;2023-05-23T04:01:48;99819.13;;;23.90;44.31
8637;BME280;4356;49.068;8.658;2023-05-23T04:04:13;99823.81;;;23.89;44.23
8637;BME280;4356;49.068;8.658;2023-05-23T04:06:41;99821.84;;;23.90;44.23
8637;BME280;4356;49.068;8.658;2023-05-23T04:09:07;99821.84;;;23.90;44.17
8637;BME280;4356;49.068;8.658;2023-05-23T04:11:33;99828.44;;;23.89;44.17
8637;BME280;4356;49.068;8.658;2023-05-23T04:13:58;99809.69;;;23.81;44.13
8637;BME280;4356;49.068;8.658;2023-05-23T04:16:26;99836.69;;;23.89;44.07
8637;BME280;4356;49.068;8.658;2023-05-23T04:18:51;99834.19;;;23.87;44.22
8637;BME280;4356;49.068;8.658;2023-05-23T04:21:18;99832.53;;;23.86;44.19
8637;BME280;4356;49.068;8.658;2023-05-23T04:23:44;99826.50;;;23.84;43.99
8637;BME280;4356;49.068;8.658;2023-05-23T04:26:10;99827.56;;;23.83;44.08
8637;BME280;4356;49.068;8.658;2023-05-23T04:28:37;99836.91;;;23.82;44.04
8637;BME280;4356;49.068;8.658;2023-05-23T04:31:04;99825.03;;;23.77;44.17
8637;BME280;4356;49.068;8.658;2023-05-23T04:33:29;99838.53;;;23.83;44.18
8637;BME280;4356;49.068;8.658;2023-05-23T04:35:55;99833.31;;;23.82;43.97
8637;BME280;4356;49.068;8.658;2023-05-23T04:38:22;99847.34;;;23.85;43.94
8637;BME280;4356;49.068;8.658;2023-05-23T04:40:49;99852.25;;;23.83;44.10
8637;BME280;4356;49.068;8.658;2023-05-23T04:43:17;99842.88;;;23.79;44.15
8637;BME280;4356;49.068;8.658;2023-05-23T04:45:45;99840.94;;;23.75;43.96
8637;BME280;4356;49.068;8.658;2023-05-23T04:48:10;99848.09;;;23.81;43.98
8637;BME280;4356;49.068;8.658;2023-05-23T04:50:38;99858.03;;;23.82;44.20
8637;BME280;4356;49.068;8.658;2023-05-23T04:53:05;99851.13;;;23.79;44.01
8637;BME280;4356;49.068;8.658;2023-05-23T04:55:30;99854.97;;;23.78;43.90
8637;BME280;4356;49.068;8.658;2023-05-23T04:57:56;99853.25;;;23.72;43.96
8637;BME280;4356;49.068;8.658;2023-05-23T05:00:22;99864.84;;;23.79;43.72
8637;BME280;4356;49.068;8.658;2023-05-23T05:02:47;99867.00;;;23.77;44.07
8637;BME280;4356;49.068;8.658;2023-05-23T05:05:13;99865.69;;;23.80;43.89
8637;BME280;4356;49.068;8.658;2023-05-23T05:07:38;99847.44;;;23.69;44.04
8637;BME280;4356;49.068;8.658;2023-05-23T05:10:05;99867.84;;;23.78;44.00
8637;BME280;4356;49.068;8.658;2023-05-23T05:12:31;99864.25;;;23.77;44.17
8637;BME280;4356;49.068;8.658;2023-05-23T05:14:56;99872.50;;;23.77;44.02
8637;BME280;4356;49.068;8.658;2023-05-23T05:17:22;99859.81;;;23.71;43.93
8637;BME280;4356;49.068;8.658;2023-05-23T05:19:47;99862.31;;;23.73;44.06
8637;BME280;4356;49.068;8.658;2023-05-23T05:22:13;99872.81;;;23.81;44.11
8637;BME280;4356;49.068;8.658;2023-05-23T05:24:39;99869.75;;;23.77;44.20
8637;BME280;4356;49.068;8.658;2023-05-23T05:27:05;99852.41;;;23.72;44.29
8637;BME280;4356;49.068;8.658;2023-05-23T05:29:31;99865.06;;;23.73;44.08
8637;BME280;4356;49.068;8.658;2023-05-23T05:31:58;99890.13;;;23.81;44.56
8637;BME280;4356;49.068;8.658;2023-05-23T05:34:25;99885.97;;;23.79;44.53
8637;BME280;4356;49.068;8.658;2023-05-23T05:36:52;99881.56;;;23.78;44.43
8637;BME280;4356;49.068;8.658;2023-05-23T05:39:23;99889.28;;;23.81;44.43
8637;BME280;4356;49.068;8.658;2023-05-23T05:41:50;99891.22;;;23.80;44.31
8637;BME280;4356;49.068;8.658;2023-05-23T05:44:15;99895.84;;;23.80;44.54
8637;BME280;4356;49.068;8.658;2023-05-23T05:46:41;99877.94;;;23.72;44.50
8637;BME280;4356;49.068;8.658;2023-05-23T05:49:07;99889.28;;;23.81;44.27
8637;BME280;4356;49.068;8.658;2023-05-23T05:51:32;99888.38;;;23.75;44.06
8637;BME280;4356;49.068;8.658;2023-05-23T05:54:01;99902.75;;;23.82;44.23
8637;BME280;4356;49.068;8.658;2023-05-23T05:56:26;99890.06;;;23.76;44.20
8637;BME280;4356;49.068;8.658;2023-05-23T05:58:52;99900.03;;;23.82;44.13
8637;BME280;4356;49.068;8.658;2023-05-23T06:01:18;99887.00;;;23.73;44.07
8637;BME280;4356;49.068;8.658;2023-05-23T06:03:43;99914.06;;;23.86;44.27
8637;BME280;4356;49.068;8.658;2023-05-23T06:06:09;99909.91;;;23.83;44.08
8637;BME280;4356;49.068;8.658;2023-05-23T06:08:34;99914.88;;;23.86;44.15
8637;BME280;4356;49.068;8.658;2023-05-23T06:11:00;99919.81;;;23.84;43.94
8637;BME280;4356;49.068;8.658;2023-05-23T06:13:25;99921.44;;;23.85;43.97
8637;BME280;4356;49.068;8.658;2023-05-23T06:15:51;99932.44;;;23.85;44.16
8637;BME280;4356;49.068;8.658;2023-05-23T06:18:17;99926.09;;;23.85;44.06
8637;BME280;4356;49.068;8.658;2023-05-23T06:20:43;99921.41;;;23.80;44.32
8637;BME280;4356;49.068;8.658;2023-05-23T06:23:08;99941.75;;;23.84;44.31
8637;BME280;4356;49.068;8.658;2023-05-23T06:25:34;99921.56;;;23.74;44.38
8637;BME280;4356;49.068;8.658;2023-05-23T06:27:59;99943.09;;;23.82;44.37
8637;BME280;4356;49.068;8.658;2023-05-23T06:30:25;99940.34;;;23.82;44.40
8637;BME280;4356;49.068;8.658;2023-05-23T06:32:51;99944.41;;;23.79;44.33
8637;BME280;4356;49.068;8.658;2023-05-23T06:35:16;99945.53;;;23.78;44.35
8637;BME280;4356;49.068;8.658;2023-05-23T06:37:42;99954.34;;;23.80;44.22
8637;BME280;4356;49.068;8.658;2023-05-23T06:40:11;99954.81;;;23.77;44.48
8637;BME280;4356;49.068;8.658;2023-05-23T06:42:38;99964.72;;;23.78;44.43
8637;BME280;4356;49.068;8.658;2023-05-23T06:45:04;99955.88;;;23.71;44.63
8637;BME280;4356;49.068;8.658;2023-05-23T06:47:30;99968.47;;;23.72;44.40
8637;BME280;4356;49.068;8.658;2023-05-23T06:49:55;99963.84;;;23.73;44.60
8637;BME280;4356;49.068;8.658;2023-05-23T06:52:21;99968.22;;;23.74;44.65
8637;BME280;4356;49.068;8.658;2023-05-23T06:54:46;99989.91;;;23.75;44.56
8637;BME280;4356;49.068;8.658;2023-05-23T06:57:12;99983.34;;;23.76;44.50
8637;BME280;4356;49.068;8.658;2023-05-23T06:59:37;99982.25;;;23.77;44.42
8637;BME280;4356;49.068;8.658;2023-05-23T07:02:03;99977.56;;;23.73;44.49
8637;BME280;4356;49.068;8.658;2023-05-23T07:04:29;99975.97;;;23.77;44.27
8637;BME280;4356;49.068;8.658;2023-05-23T07:06:54;99991.91;;;23.80;44.21
8637;BME280;4356;49.068;8.658;2023-05-23T07:09:20;99986.94;;;23.77;44.28
8637;BME280;4356;49.068;8.658;2023-05-23T07:11:45;99984.44;;;23.75;44.39
8637;BME280;4356;49.068;8.658;2023-05-23T07:14:11;99992.50;;;23.82;44.11
8637;BME280;4356;49.068;8.658;2023-05-23T07:16:36;100002.88;;;23.80;43.98
8637;BME280;4356;49.068;8.658;2023-05-23T07:19:02;99997.41;;;23.80;44.15
8637;BME280;4356;49.068;8.658;2023-05-23T07:21:29;100010.13;;;23.86;43.97
8637;BME280;4356;49.068;8.658;2023-05-23T07:23:56;100004.06;;;23.84;44.07
8637;BME280;4356;49.068;8.658;2023-05-23T07:26:21;100004.88;;;23.84;44.00
8637;BME280;4356;49.068;8.658;2023-05-23T07:28:47;100017.00;;;23.88;44.06
8637;BME280;4356;49.068;8.658;2023-05-23T07:31:12;100008.75;;;23.88;43.97
8637;BME280;4356;49.068;8.658;2023-05-23T07:33:38;100014.78;;;23.85;44.03
8637;BME280;4356;49.068;8.658;2023-05-23T07:36:04;100008.19;;;23.86;43.93
8637;BME280;4356;49.068;8.658;2023-05-23T07:38:30;100017.84;;;23.89;43.90
8637;BME280;4356;49.068;8.658;2023-05-23T07:40:56;100007.38;;;23.86;43.99
8637;BME280;4356;49.068;8.658;2023-05-23T07:43:21;100019.47;;;23.90;43.89
8637;BME280;4356;49.068;8.658;2023-05-23T07:45:47;100023.31;;;23.89;43.91
8637;BME280;4356;49.068;8.658;2023-05-23T07:48:12;100009.78;;;23.82;43.82
8637;BME280;4356;49.068;8.658;2023-05-23T07:50:41;100020.56;;;23.89;43.84
8637;BME280;4356;49.068;8.658;2023-05-23T07:53:06;100025.22;;;23.88;43.88
8637;BME280;4356;49.068;8.658;2023-05-23T07:55:32;100023.06;;;23.90;43.75
8637;BME280;4356;49.068;8.658;2023-05-23T07:57:57;100020.56;;;23.89;43.85
8637;BME280;4356;49.068;8.658;2023-05-23T08:00:23;100021.16;;;23.91;43.78
8637;BME280;4356;49.068;8.658;2023-05-23T08:02:48;100009.03;;;23.87;43.77
8637;BME280;4356;49.068;8.658;2023-05-23T08:05:14;100013.19;;;23.89;43.82
8637;BME280;4356;49.068;8.658;2023-05-23T08:07:40;100018.16;;;23.92;43.85
8637;BME280;4356;49.068;8.658;2023-05-23T08:10:06;100022.31;;;23.95;43.60
8637;BME280;4356;49.068;8.658;2023-05-23T08:12:32;100026.72;;;23.96;43.84
8637;BME280;4356;49.068;8.658;2023-05-23T08:14:58;100023.38;;;23.94;43.89
8637;BME280;4356;49.068;8.658;2023-05-23T08:17:23;100023.38;;;23.94;43.78
8637;BME280;4356;49.068;8.658;2023-05-23T08:19:49;100029.72;;;23.94;43.97
8637;BME280;4356;49.068;8.658;2023-05-23T08:22:14;100031.63;;;23.94;43.83
8637;BME280;4356;49.068;8.658;2023-05-23T08:24:40;100034.69;;;23.97;43.87
8637;BME280;4356;49.068;8.658;2023-05-23T08:27:05;100034.09;;;23.95;43.80
8637;BME280;4356;49.068;8.658;2023-05-23T08:29:32;100016.72;;;23.90;43.83
8637;BME280;4356;49.068;8.658;2023-05-23T08:31:59;100032.50;;;23.99;43.90
8637;BME280;4356;49.068;8.658;2023-05-23T08:34:25;100036.34;;;23.98;43.84
8637;BME280;4356;49.068;8.658;2023-05-23T08:36:50;100033.34;;;24.00;43.78
8637;BME280;4356;49.068;8.658;2023-05-23T08:39:17;100035.53;;;23.98;43.62
8637;BME280;4356;49.068;8.658;2023-05-23T08:41:43;100034.41;;;23.99;43.68
8637;BME280;4356;49.068;8.658;2023-05-23T08:44:08;100046.59;;;24.03;43.59
8637;BME280;4356;49.068;8.658;2023-05-23T08:46:44;100036.97;;;24.00;43.56
8637;BME280;4356;49.068;8.658;2023-05-23T08:49:12;100047.16;;;24.05;43.54
8637;BME280;4356;49.068;8.658;2023-05-23T08:51:41;100029.78;;;23.99;43.68
8637;BME280;4356;49.068;8.658;2023-05-23T08:54:07;100043.34;;;24.06;43.67
8637;BME280;4356;49.068;8.658;2023-05-23T08:56:35;100043.34;;;24.06;43.42
8637;BME280;4356;49.068;8.658;2023-05-23T08:59:03;100045.59;;;24.09;43.37
8637;BME280;4356;49.068;8.658;2023-05-23T09:01:29;100054.41;;;24.11;43.48
8637;BME280;4356;49.068;8.658;2023-05-23T09:03:55;100049.75;;;24.11;43.37
8637;BME280;4356;49.068;8.658;2023-05-23T09:06:24;100053.88;;;24.14;43.45
8637;BME280;4356;49.068;8.658;2023-05-23T09:08:50;100049.75;;;24.11;43.38
8637;BME280;4356;49.068;8.658;2023-05-23T09:11:16;100057.47;;;24.14;43.41
8637;BME280;4356;49.068;8.658;2023-05-23T09:13:42;100060.53;;;24.18;43.55
8637;BME280;4356;49.068;8.658;2023-05-23T09:16:10;100057.78;;;24.18;43.41
8637;BME280;4356;49.068;8.658;2023-05-23T09:18:42;100060.84;;;24.21;43.48
8637;BME280;4356;49.068;8.658;2023-05-23T09:21:09;100062.75;;;24.21;43.49
8637;BME280;4356;49.068;8.658;2023-05-23T09:23:35;100052.03;;;24.19;43.59
8637;BME280;4356;49.068;8.658;2023-05-23T09:26:07;100055.94;;;24.23;43.48
8637;BME280;4356;49.068;8.658;2023-05-23T09:28:33;100059.50;;;24.24;43.35
8637;BME280;4356;49.068;8.658;2023-05-23T09:31:04;100064.22;;;24.28;43.43
8637;BME280;4356;49.068;8.658;2023-05-23T09:33:44;100054.34;;;24.27;43.43
8637;BME280;4356;49.068;8.658;2023-05-23T09:36:11;100058.72;;;24.28;43.56
8637;BME280;4356;49.068;8.658;2023-05-23T09:38:40;100068.72;;;24.34;43.39
8637;BME280;4356;49.068;8.658;2023-05-23T09:41:07;100071.44;;;24.34;43.52
8637;BME280;4356;49.068;8.658;2023-05-23T09:43:33;100055.47;;;24.31;43.25
8637;BME280;4356;49.068;8.658;2023-05-23T09:46:09;100059.09;;;24.37;43.57
8637;BME280;4356;49.068;8.658;2023-05-23T09:48:35;100069.28;;;24.36;43.29
8637;BME280;4356;49.068;8.658;2023-05-23T09:51:05;100062.09;;;24.35;43.11
8637;BME280;4356;49.068;8.658;2023-05-23T09:53:31;100056.13;;;24.38;43.26
8637;BME280;4356;49.068;8.658;2023-05-23T09:56:02;100063.00;;;24.41;43.08
8637;BME280;4356;49.068;8.658;2023-05-23T09:58:28;100063.56;;;24.43;43.38
8637;BME280;4356;49.068;8.658;2023-05-23T10:00:59;100062.50;;;24.44;43.35
8637;BME280;4356;49.068;8.658;2023-05-23T10:03:38;100059.50;;;24.45;43.01
8637;BME280;4356;49.068;8.658;2023-05-23T10:06:33;100063.38;;;24.49;43.08
8637;BME280;4356;49.068;8.658;2023-05-23T10:09:03;100063.38;;;24.49;43.24
8637;BME280;4356;49.068;8.658;2023-05-23T10:14:08;100074.13;;;24.51;43.00
8637;BME280;4356;49.068;8.658;2023-05-23T10:19:22;100062.88;;;24.53;43.02
8637;BME280;4356;49.068;8.658;2023-05-23T10:21:57;100064.53;;;24.54;43.22
8637;BME280;4356;49.068;8.658;2023-05-23T10:24:26;100051.53;;;24.44;43.21
8637;BME280;4356;49.068;8.658;2023-05-23T10:26:53;100067.84;;;24.56;43.09
8637;BME280;4356;49.068;8.658;2023-05-23T10:29:23;100069.84;;;24.60;43.05
8637;BME280;4356;49.068;8.658;2023-05-23T10:31:50;100067.09;;;24.60;43.05
8637;BME280;4356;49.068;8.658;2023-05-23T10:34:21;100068.47;;;24.63;43.02
8637;BME280;4356;49.068;8.658;2023-05-23T10:37:04;100063.53;;;24.65;42.99
8637;BME280;4356;49.068;8.658;2023-05-23T10:39:48;100064.97;;;24.67;42.86
8637;BME280;4356;49.068;8.658;2023-05-23T10:42:44;100059.47;;;24.67;42.88
8637;BME280;4356;49.068;8.658;2023-05-23T10:45:18;100071.63;;;24.71;42.97
8637;BME280;4356;49.068;8.658;2023-05-23T10:47:48;100068.88;;;24.71;42.53
8637;BME280;4356;49.068;8.658;2023-05-23T10:50:29;100062.88;;;24.74;42.85
8637;BME280;4356;49.068;8.658;2023-05-23T10:52:58;100061.50;;;24.77;42.65
8637;BME280;4356;49.068;8.658;2023-05-23T10:55:25;100062.59;;;24.76;42.73
8637;BME280;4356;49.068;8.658;2023-05-23T10:58:20;100060.72;;;24.81;42.63
8637;BME280;4356;49.068;8.658;2023-05-23T11:00:52;100053.59;;;24.80;42.50
8637;BME280;4356;49.068;8.658;2023-05-23T11:03:18;100064.91;;;24.84;42.43
8637;BME280;4356;49.068;8.658;2023-05-23T11:05:54;100063.53;;;24.86;42.56
8637;BME280;4356;49.068;8.658;2023-05-23T11:08:23;100072.63;;;24.87;42.50
8637;BME280;4356;49.068;8.658;2023-05-23T11:13:23;100045.09;;;24.82;42.49
8637;BME280;4356;49.068;8.658;2023-05-23T11:15:49;100065.25;;;24.92;42.39
8637;BME280;4356;49.068;8.658;2023-05-23T11:18:28;100071.59;;;24.93;42.46
8637;BME280;4356;49.068;8.658;2023-05-23T11:20:57;100067.47;;;24.95;42.45
8637;BME280;4356;49.068;8.658;2023-05-23T11:23:38;100066.13;;;24.98;42.44
8637;BME280;4356;49.068;8.658;2023-05-23T11:26:27;100071.63;;;24.98;42.44
8637;BME280;4356;49.068;8.658;2023-05-23T11:28:57;100060.38;;;24.99;42.37
8637;BME280;4356;49.068;8.658;2023-05-23T11:31:23;100055.97;;;24.98;42.48
8637;BME280;4356;49.068;8.658;2023-05-23T11:33:52;100039.66;;;24.92;42.33
8637;BME280;4356;49.068;8.658;2023-05-23T11:36:20;100048.78;;;24.97;42.29
8637;BME280;4356;49.068;8.658;2023-05-23T11:38:47;100050.50;;;25.03;42.25
8637;BME280;4356;49.068;8.658;2023-05-23T11:41:13;100050.81;;;25.07;42.35
8637;BME280;4356;49.068;8.658;2023-05-23T11:43:48;100044.47;;;25.06;42.40
8637;BME280;4356;49.068;8.658;2023-05-23T11:46:14;100047.53;;;25.10;42.15
8637;BME280;4356;49.068;8.658;2023-05-23T11:48:46;100045.91;;;25.14;42.23
8637;BME280;4356;49.068;8.658;2023-05-23T11:51:12;100052.81;;;25.16;42.15
8637;BME280;4356;49.068;8.658;2023-05-23T11:53:38;100052.00;;;25.16;41.94
8637;BME280;4356;49.068;8.658;2023-05-23T11:56:04;100051.72;;;25.17;41.79
8637;BME280;4356;49.068;8.658;2023-05-23T11:58:32;100049.81;;;25.18;42.09
8637;BME280;4356;49.068;8.658;2023-05-23T12:01:06;100061.97;;;25.22;42.06
8637;BME280;4356;49.068;8.658;2023-05-23T12:03:47;100054.78;;;25.21;41.87
8637;BME280;4356;49.068;8.658;2023-05-23T12:06:15;100061.38;;;25.20;42.01
8637;BME280;4356;49.068;8.658;2023-05-23T12:08:41;100057.78;;;25.19;42.05
8637;BME280;4356;49.068;8.658;2023-05-23T12:11:07;100067.47;;;25.22;42.08
8637;BME280;4356;49.068;8.658;2023-05-23T12:13:32;100061.63;;;25.18;42.06
8637;BME280;4356;49.068;8.658;2023-05-23T12:16:01;100063.03;;;25.21;42.16
8637;BME280;4356;49.068;8.658;2023-05-23T12:18:29;100057.25;;;25.22;41.75
8637;BME280;4356;49.068;8.658;2023-05-23T12:20:58;100063.88;;;25.21;41.95
8637;BME280;4356;49.068;8.658;2023-05-23T12:23:27;100060.28;;;25.21;41.95
8637;BME280;4356;49.068;8.658;2023-05-23T12:25:53;100049.81;;;25.18;42.18
8637;BME280;4356;49.068;8.658;2023-05-23T12:28:20;100059.19;;;25.22;42.23
8637;BME280;4356;49.068;8.658;2023-05-23T12:30:46;100047.06;;;25.18;42.20
8637;BME280;4356;49.068;8.658;2023-05-23T12:33:12;100055.63;;;25.21;42.13
8637;BME280;4356;49.068;8.658;2023-05-23T12:35:42;100045.13;;;25.18;41.87
8637;BME280;4356;49.068;8.658;2023-05-23T12:38:09;100060.28;;;25.21;42.05
8637;BME280;4356;49.068;8.658;2023-05-23T12:40:34;100053.94;;;25.20;41.97
8637;BME280;4356;49.068;8.658;2023-05-23T12:43:00;100054.50;;;25.22;42.03
8637;BME280;4356;49.068;8.658;2023-05-23T12:45:33;100053.69;;;25.22;42.15
8637;BME280;4356;49.068;8.658;2023-05-23T12:48:03;100046.25;;;25.22;41.72
8637;BME280;4356;49.068;8.658;2023-05-23T12:50:29;100040.75;;;25.22;41.88
8637;BME280;4356;49.068;8.658;2023-05-23T12:52:55;100032.75;;;25.16;41.87
8637;BME280;4356;49.068;8.658;2023-05-23T12:55:21;100039.41;;;25.25;41.94
8637;BME280;4356;49.068;8.658;2023-05-23T12:57:47;100047.41;;;25.26;41.73
8637;BME280;4356;49.068;8.658;2023-05-23T13:00:13;100025.06;;;25.18;41.90
8637;BME280;4356;49.068;8.658;2023-05-23T13:02:38;100040.56;;;25.29;41.92
8637;BME280;4356;49.068;8.658;2023-05-23T13:05:05;100039.72;;;25.28;42.10
8637;BME280;4356;49.068;8.658;2023-05-23T13:07:30;100039.72;;;25.28;41.68
8637;BME280;4356;49.068;8.658;2023-05-23T13:09:56;100035.06;;;25.29;41.87
8637;BME280;4356;49.068;8.658;2023-05-23T13:12:22;100030.94;;;25.31;41.51
8637;BME280;4356;49.068;8.658;2023-05-23T13:14:49;100037.25;;;25.32;41.83
8637;BME280;4356;49.068;8.658;2023-05-23T13:17:15;100042.19;;;25.30;41.80
8637;BME280;4356;49.068;8.658;2023-05-23T13:19:41;100038.09;;;25.32;41.80
8637;BME280;4356;49.068;8.658;2023-05-23T13:22:07;100040.31;;;25.35;41.95
8637;BME280;4356;49.068;8.658;2023-05-23T13:24:36;100024.34;;;25.32;41.77
8637;BME280;4356;49.068;8.658;2023-05-23T13:27:05;100030.16;;;25.36;41.85
8637;BME280;4356;49.068;8.658;2023-05-23T13:29:32;100037.91;;;25.39;41.48
8637;BME280;4356;49.068;8.658;2023-05-23T13:31:58;100035.16;;;25.39;41.53